createdAt,value
2019-06-07T00:01:56.125Z,12.60
2019-06-07T00:04:27.689Z,12.60
2019-06-07T00:06:58.547Z,12.60
2019-06-07T00:09:31.074Z,12.50
2019-06-07T00:12:02.362Z,12.60
2019-06-07T00:14:33.080Z,12.50
2019-06-07T00:17:03.923Z,12.50
2019-06-07T00:19:35.612Z,12.50
2019-06-07T00:22:16.577Z,12.40
2019-06-07T00:24:40.788Z,12.40
2019-06-07T00:27:12.883Z,12.40
2019-06-07T00:29:43.884Z,12.40
2019-06-07T00:32:18.357Z,12.40
2019-06-07T00:34:52.709Z,12.40
2019-06-07T00:37:24.959Z,12.40
2019-06-07T00:40:12.958Z,12.30
2019-06-07T00:42:26.371Z,12.20
2019-06-07T00:44:57.090Z,12.30
2019-06-07T00:47:28.268Z,12.20
2019-06-07T00:49:59.608Z,12.20
2019-06-07T00:55:03.544Z,12.20
2019-06-07T00:57:34.910Z,12.20
2019-06-07T01:00:08.752Z,12.20
2019-06-07T01:02:39.313Z,12.20
2019-06-07T01:05:10.382Z,12.20
2019-06-07T01:07:41.288Z,12.20
2019-06-07T01:10:17.378Z,12.10
2019-06-07T01:12:48.551Z,12.10
2019-06-07T01:15:28.840Z,12.10
2019-06-07T01:18:36.116Z,12.10
2019-06-07T01:20:29.580Z,12.10
2019-06-07T01:23:01.333Z,12.00
2019-06-07T01:25:32.694Z,11.90
2019-06-07T01:28:04.248Z,11.80
2019-06-07T01:30:34.976Z,11.80
2019-06-07T01:33:06.540Z,11.80
2019-06-07T01:35:37.404Z,11.80
2019-06-07T01:38:08.432Z,11.80
2019-06-07T01:40:38.570Z,11.80
2019-06-07T01:43:09.293Z,11.70
2019-06-07T01:45:39.899Z,11.70
2019-06-07T01:48:10.925Z,11.70
2019-06-07T01:50:41.504Z,11.70
2019-06-07T01:53:13.220Z,11.70
2019-06-07T01:55:44.215Z,11.70
2019-06-07T01:58:14.507Z,11.70
2019-06-07T02:00:45.941Z,11.70
2019-06-07T02:03:18.661Z,11.70
2019-06-07T02:05:49.483Z,11.60
2019-06-07T02:08:21.689Z,11.60
2019-06-07T02:10:53.565Z,11.50
2019-06-07T02:13:27.831Z,11.40
2019-06-07T02:15:57.472Z,11.40
2019-06-07T02:18:34.322Z,11.40
2019-06-07T02:21:00.614Z,11.50
2019-06-07T02:23:33.717Z,11.50
2019-06-07T02:26:05.368Z,11.50
2019-06-07T02:31:21.767Z,11.50
2019-06-07T02:33:53.092Z,11.60
2019-06-07T02:36:29.206Z,11.60
2019-06-07T02:38:55.774Z,11.70
2019-06-07T02:41:33.587Z,11.70
2019-06-07T02:43:59.287Z,11.70
2019-06-07T02:46:40.223Z,11.70
2019-06-07T02:49:02.060Z,11.80
2019-06-07T02:51:40.550Z,11.80
2019-06-07T02:54:04.634Z,11.80
2019-06-07T02:56:52.311Z,11.90
2019-06-07T02:59:08.909Z,11.90
2019-06-07T03:01:42.564Z,11.90
2019-06-07T03:04:14.645Z,11.90
2019-06-07T03:06:46.607Z,12.00
2019-06-07T03:09:19.033Z,12.00
2019-06-07T03:11:52.992Z,12.00
2019-06-07T03:14:26.015Z,12.00
2019-06-07T03:17:20.124Z,12.10
2019-06-07T03:19:53.527Z,12.10
2019-06-07T03:22:24.072Z,12.10
2019-06-07T03:24:56.846Z,12.10
2019-06-07T03:27:36.245Z,12.10
2019-06-07T03:30:35.044Z,12.10
2019-06-07T03:32:39.882Z,12.10
2019-06-07T03:35:08.402Z,12.10
2019-06-07T03:37:42.596Z,12.10
2019-06-07T03:40:11.663Z,12.00
2019-06-07T03:42:42.665Z,12.00
2019-06-07T03:45:13.821Z,12.00
2019-06-07T03:47:44.143Z,12.00
2019-06-07T03:50:15.293Z,12.00
2019-06-07T03:52:46.035Z,12.00
2019-06-07T03:55:16.914Z,12.00
2019-06-07T03:58:30.069Z,12.00
2019-06-07T04:00:22.527Z,12.00
2019-06-07T04:02:53.273Z,12.00
2019-06-07T04:05:24.433Z,12.00
2019-06-07T04:07:57.449Z,11.90
2019-06-07T04:10:51.975Z,11.90
2019-06-07T04:13:01.162Z,11.90
2019-06-07T04:15:33.827Z,11.80
2019-06-07T04:18:04.477Z,11.80
2019-06-07T04:20:38.590Z,11.80
2019-06-07T04:23:27.343Z,11.80
2019-06-07T04:25:42.632Z,11.80
2019-06-07T04:28:13.990Z,11.80
2019-06-07T04:30:45.952Z,11.80
2019-06-07T04:33:16.687Z,11.80
2019-06-07T04:35:47.577Z,11.90
2019-06-07T04:38:18.576Z,11.90
2019-06-07T04:40:50.700Z,12.00
2019-06-07T04:43:21.656Z,12.00
2019-06-07T04:45:52.641Z,12.00
2019-06-07T04:48:23.784Z,12.00
2019-06-07T04:50:56.855Z,12.00
2019-06-07T04:53:30.069Z,12.10
2019-06-07T04:55:59.619Z,12.10
2019-06-07T04:58:30.436Z,12.10
2019-06-07T05:01:03.631Z,12.10
2019-06-07T05:03:38.218Z,12.10
2019-06-07T05:06:06.952Z,12.20
2019-06-07T05:08:38.783Z,12.20
2019-06-07T05:11:10.267Z,12.10
2019-06-07T05:13:43.985Z,12.10
2019-06-07T05:16:13.177Z,12.10
2019-06-07T05:18:44.167Z,12.10
2019-06-07T05:21:14.443Z,12.10
2019-06-07T05:24:07.465Z,12.20
2019-06-07T05:26:17.784Z,12.10
2019-06-07T05:28:48.461Z,12.20
2019-06-07T05:31:19.281Z,12.20
2019-06-07T05:33:49.976Z,12.30
2019-06-07T05:36:20.313Z,12.40
2019-06-07T05:38:50.669Z,12.30
2019-06-07T05:41:21.991Z,12.40
2019-06-07T05:44:11.726Z,12.40
2019-06-07T05:46:25.447Z,12.50
2019-06-07T05:48:56.353Z,12.50
2019-06-07T05:51:27.340Z,12.50
2019-06-07T05:53:57.981Z,12.50
2019-06-07T05:56:28.887Z,12.50
2019-06-07T05:58:59.004Z,12.50
2019-06-07T06:01:56.579Z,12.30
2019-06-07T06:04:01.912Z,12.30
2019-06-07T06:06:33.917Z,12.30
2019-06-07T06:09:13.901Z,12.30
2019-06-07T06:11:49.548Z,12.20
2019-06-07T06:14:12.653Z,12.20
2019-06-07T06:16:45.725Z,12.20
2019-06-07T06:19:15.717Z,12.20
2019-06-07T06:21:46.544Z,12.20
2019-06-07T06:24:20.311Z,12.20
2019-06-07T06:26:55.038Z,12.20
2019-06-07T06:29:23.033Z,12.30
2019-06-07T06:32:40.076Z,12.30
2019-06-07T06:34:26.302Z,12.50
2019-06-07T06:36:57.491Z,12.50
2019-06-07T06:39:27.880Z,12.60
2019-06-07T06:42:03.722Z,12.60
2019-06-07T06:44:31.153Z,12.70
2019-06-07T06:47:01.488Z,12.80
2019-06-07T06:49:32.101Z,12.90
2019-06-07T06:52:02.790Z,12.90
2019-06-07T06:54:40.712Z,13.10
2019-06-07T06:57:19.105Z,13.20
2019-06-07T06:59:41.339Z,13.30
2019-06-07T07:02:12.452Z,13.40
2019-06-07T07:04:45.286Z,13.40
2019-06-07T07:07:17.152Z,13.50
2019-06-07T07:09:52.348Z,13.60
2019-06-07T07:12:20.973Z,13.80
2019-06-07T07:14:55.140Z,14.10
2019-06-07T07:17:46.742Z,14.30
2019-06-07T07:19:56.641Z,14.40
2019-06-07T07:22:26.360Z,14.50
2019-06-07T07:24:57.501Z,14.60
2019-06-07T07:27:27.825Z,14.70
2019-06-07T07:30:34.661Z,14.80
2019-06-07T07:32:31.373Z,14.90
2019-06-07T07:35:01.904Z,15.00
2019-06-07T07:37:33.794Z,15.20
2019-06-07T07:40:55.002Z,15.40
2019-06-07T07:42:39.229Z,15.50
2019-06-07T07:45:09.496Z,15.70
2019-06-07T07:47:58.294Z,15.80
2019-06-07T07:50:12.616Z,16.00
2019-06-07T07:52:45.873Z,16.20
2019-06-07T07:55:16.007Z,16.40
2019-06-07T07:57:48.707Z,16.60
2019-06-07T08:00:50.189Z,16.70
2019-06-07T08:02:56.227Z,16.90
2019-06-07T08:05:41.852Z,17.00
2019-06-07T08:08:01.570Z,17.10
2019-06-07T08:10:31.065Z,17.20
2019-06-07T08:13:22.136Z,17.40
2019-06-07T08:15:34.448Z,17.50
2019-06-07T08:18:06.564Z,17.50
2019-06-07T08:20:37.706Z,17.80
2019-06-07T08:23:08.242Z,18.00
2019-06-07T08:25:38.451Z,18.10
2019-06-07T08:28:09.726Z,18.00
2019-06-07T08:30:53.256Z,18.00
2019-06-07T08:33:25.861Z,18.10
2019-06-07T08:38:27.596Z,18.20
2019-06-07T08:40:56.854Z,18.30
2019-06-07T08:43:25.211Z,18.50
2019-06-07T08:46:02.168Z,18.70
2019-06-07T08:48:30.409Z,18.80
2019-06-07T08:51:06.338Z,18.90
2019-06-07T08:53:33.894Z,19.00
2019-06-07T08:56:09.925Z,19.20
2019-06-07T08:58:36.606Z,19.20
2019-06-07T09:01:08.908Z,19.40
2019-06-07T09:03:39.926Z,19.30
2019-06-07T09:06:53.839Z,19.30
2019-06-07T09:08:42.874Z,19.30
2019-06-07T09:11:13.986Z,19.40
2019-06-07T09:13:45.130Z,19.40
2019-06-07T09:16:15.554Z,19.50
2019-06-07T09:18:45.637Z,19.70
2019-06-07T09:21:17.554Z,19.90
2019-06-07T09:23:48.082Z,19.80
2019-06-07T09:26:20.464Z,19.80
2019-06-07T09:28:52.835Z,19.90
2019-06-07T09:31:23.787Z,20.00
2019-06-07T09:33:57.816Z,20.00
2019-06-07T09:36:27.122Z,20.00
2019-06-07T09:38:59.567Z,20.10
2019-06-07T09:41:46.808Z,20.30
2019-06-07T09:44:19.024Z,20.40
2019-06-07T09:46:35.801Z,20.40
2019-06-07T09:49:18.251Z,20.40
2019-06-07T09:51:39.068Z,20.60
2019-06-07T09:54:11.502Z,20.70
2019-06-07T09:56:42.435Z,20.90
2019-06-07T09:59:13.241Z,21.00
2019-06-07T10:01:44.730Z,21.20
2019-06-07T10:04:30.292Z,21.40
2019-06-07T10:06:48.317Z,21.70
2019-06-07T10:10:09.229Z,22.10
2019-06-07T10:11:51.133Z,22.40
2019-06-07T10:14:22.169Z,22.90
2019-06-07T10:16:53.047Z,23.30
2019-06-07T10:19:24.225Z,23.60
2019-06-07T10:21:54.764Z,23.60
2019-06-07T10:24:25.454Z,24.10
2019-06-07T10:26:55.614Z,24.60
2019-06-07T10:29:25.961Z,25.30
2019-06-07T10:31:56.672Z,25.90
2019-06-07T10:34:27.439Z,26.80
2019-06-07T10:36:58.376Z,27.20
2019-06-07T10:39:28.884Z,27.60
2019-06-07T10:42:00.952Z,28.10
2019-06-07T10:44:31.965Z,28.40
2019-06-07T10:47:03.870Z,28.90
2019-06-07T10:49:34.730Z,29.40
2019-06-07T10:52:07.842Z,30.00
2019-06-07T10:54:38.024Z,30.40
2019-06-07T10:57:12.164Z,31.00
2019-06-07T10:59:41.328Z,31.10
2019-06-07T11:02:13.939Z,31.60
2019-06-07T11:04:44.916Z,32.20
2019-06-07T11:07:16.220Z,32.20
2019-06-07T11:09:46.361Z,31.50
2019-06-07T11:12:17.692Z,31.40
2019-06-07T11:14:48.850Z,31.40
2019-06-07T11:17:19.177Z,31.60
2019-06-07T11:19:49.960Z,31.50
2019-06-07T11:22:20.448Z,31.30
2019-06-07T11:24:50.262Z,31.20
2019-06-07T11:27:21.531Z,31.50
2019-06-07T11:29:53.498Z,32.20
2019-06-07T11:32:24.424Z,32.60
2019-06-07T11:34:54.767Z,32.20
2019-06-07T11:37:25.951Z,31.90
2019-06-07T11:39:57.260Z,32.00
2019-06-07T11:42:28.476Z,32.00
2019-06-07T11:44:59.006Z,32.30
2019-06-07T11:47:29.696Z,32.70
2019-06-07T11:49:59.946Z,32.80
2019-06-07T11:52:30.903Z,33.00
2019-06-07T11:55:01.235Z,33.20
2019-06-07T11:57:31.611Z,33.30
2019-06-07T12:00:02.011Z,33.10
2019-06-07T12:02:34.525Z,33.40
2019-06-07T12:05:05.615Z,33.90
2019-06-07T12:07:37.830Z,34.40
2019-06-07T12:10:10.766Z,34.30
2019-06-07T12:12:41.917Z,34.30
2019-06-07T12:15:14.867Z,34.00
2019-06-07T12:17:45.663Z,34.00
2019-06-07T12:20:18.664Z,33.90
2019-06-07T12:22:49.847Z,33.50
2019-06-07T12:25:24.761Z,33.40
2019-06-07T12:27:52.008Z,33.40
2019-06-07T12:30:27.707Z,33.40
2019-06-07T12:32:59.559Z,33.70
2019-06-07T12:35:30.109Z,33.70
2019-06-07T12:38:01.042Z,33.90
2019-06-07T12:40:32.481Z,34.10
2019-06-07T12:43:03.746Z,34.40
2019-06-07T12:45:44.462Z,34.10
2019-06-07T12:48:09.342Z,34.40
2019-06-07T12:50:42.965Z,34.80
2019-06-07T12:53:13.576Z,35.30
2019-06-07T12:55:44.536Z,35.30
2019-06-07T12:58:15.910Z,35.40
2019-06-07T13:00:47.516Z,36.00
2019-06-07T13:03:18.903Z,36.70
2019-06-07T13:05:50.628Z,37.00
2019-06-07T13:08:22.097Z,37.30
2019-06-07T13:10:52.256Z,37.20
2019-06-07T13:13:24.549Z,37.20
2019-06-07T13:15:55.217Z,37.20
2019-06-07T13:18:25.711Z,37.10
2019-06-07T13:20:56.227Z,37.20
2019-06-07T13:23:27.043Z,36.90
2019-06-07T13:25:58.178Z,36.60
2019-06-07T13:28:29.135Z,36.60
2019-06-07T13:31:00.272Z,36.50
2019-06-07T13:33:37.296Z,36.10
2019-06-07T13:36:03.213Z,35.80
2019-06-07T13:38:34.125Z,35.20
2019-06-07T13:41:04.796Z,35.20
2019-06-07T13:43:35.197Z,35.10
2019-06-07T13:46:05.861Z,35.00
2019-06-07T13:48:37.289Z,34.80
2019-06-07T13:51:07.617Z,34.80
2019-06-07T13:53:38.273Z,34.90
2019-06-07T13:56:09.091Z,35.20
2019-06-07T13:58:39.334Z,35.00
2019-06-07T14:01:09.904Z,34.80
2019-06-07T14:03:40.553Z,34.50
2019-06-07T14:06:11.021Z,34.30
2019-06-07T14:08:41.902Z,34.40
2019-06-07T14:11:12.430Z,34.50
2019-06-07T14:13:42.933Z,34.10
2019-06-07T14:16:13.595Z,33.40
2019-06-07T14:18:45.123Z,33.00
2019-06-07T14:21:15.863Z,32.60
2019-06-07T14:23:49.352Z,32.60
2019-06-07T14:26:18.097Z,32.50
2019-06-07T14:28:48.644Z,32.20
2019-06-07T14:31:19.435Z,31.80
2019-06-07T14:33:49.909Z,31.50
2019-06-07T14:36:22.608Z,31.10
2019-06-07T14:38:52.947Z,31.00
2019-06-07T14:41:24.933Z,30.90
2019-06-07T14:43:56.041Z,30.70
2019-06-07T14:46:26.369Z,30.60
2019-06-07T14:48:56.602Z,30.30
2019-06-07T14:51:28.330Z,30.00
2019-06-07T14:53:58.904Z,30.10
2019-06-07T14:56:31.350Z,29.80
2019-06-07T14:59:02.471Z,29.50
2019-06-07T15:01:33.457Z,29.10
2019-06-07T15:04:05.179Z,28.90
2019-06-07T15:06:35.303Z,28.80
2019-06-07T15:09:06.921Z,28.70
2019-06-07T15:11:39.228Z,28.60
2019-06-07T15:14:09.945Z,28.70
2019-06-07T15:16:40.861Z,28.60
2019-06-07T15:19:12.063Z,28.50
2019-06-07T15:21:42.195Z,28.30
2019-06-07T15:24:12.459Z,28.20
2019-06-07T15:26:43.673Z,28.00
2019-06-07T15:29:14.428Z,27.90
2019-06-07T15:31:45.330Z,27.80
2019-06-07T15:34:15.814Z,27.70
2019-06-07T15:36:46.342Z,27.60
2019-06-07T15:39:16.805Z,27.50
2019-06-07T15:41:47.409Z,27.40
2019-06-07T15:44:18.385Z,27.30
2019-06-07T15:46:48.469Z,27.10
2019-06-07T15:49:18.476Z,27.00
2019-06-07T15:51:49.411Z,27.00
2019-06-07T15:54:20.003Z,26.90
2019-06-07T15:56:50.476Z,26.80
2019-06-07T15:59:21.441Z,26.70
2019-06-07T16:01:52.165Z,26.50
2019-06-07T16:04:23.308Z,26.30
2019-06-07T16:06:54.472Z,25.80
2019-06-07T16:09:25.427Z,25.20
2019-06-07T16:11:56.293Z,25.00
2019-06-07T16:14:27.098Z,25.00
2019-06-07T16:16:58.095Z,25.10
2019-06-07T16:19:28.510Z,25.30
2019-06-07T16:21:59.198Z,25.60
2019-06-07T16:24:30.675Z,25.90
2019-06-07T16:27:00.813Z,26.10
2019-06-07T16:29:31.594Z,26.10
2019-06-07T16:32:02.385Z,26.00
2019-06-07T16:34:35.041Z,26.10
2019-06-07T16:37:06.169Z,26.00
2019-06-07T16:39:38.035Z,26.00
2019-06-07T16:42:08.815Z,25.90
2019-06-07T16:44:38.880Z,25.70
2019-06-07T16:47:09.937Z,25.60
2019-06-07T16:49:40.927Z,25.40
2019-06-07T16:52:12.064Z,25.00
2019-06-07T16:54:43.513Z,24.10
2019-06-07T16:57:14.589Z,23.10
2019-06-07T16:59:48.905Z,22.20
2019-06-07T17:02:17.479Z,21.50
2019-06-07T17:04:48.493Z,21.00
2019-06-07T17:07:19.169Z,20.60
2019-06-07T17:09:49.504Z,20.30
2019-06-07T17:12:20.839Z,20.00
2019-06-07T17:14:51.325Z,19.70
2019-06-07T17:17:21.530Z,19.40
2019-06-07T17:19:51.963Z,19.30
2019-06-07T17:22:22.750Z,19.10
2019-06-07T17:24:53.475Z,18.70
2019-06-07T17:27:23.527Z,18.30
2019-06-07T17:29:54.320Z,18.00
2019-06-07T17:32:25.561Z,17.50
2019-06-07T17:34:56.407Z,17.00
2019-06-07T17:37:27.204Z,16.60
2019-06-07T17:39:58.565Z,16.20
2019-06-07T17:42:29.431Z,15.80
2019-06-07T17:45:00.065Z,15.60
2019-06-07T17:47:30.903Z,15.50
2019-06-07T17:50:00.917Z,15.50
2019-06-07T17:52:31.425Z,15.50
2019-06-07T17:55:02.174Z,15.50
2019-06-07T17:57:32.645Z,15.50
2019-06-07T18:00:27.252Z,15.50
2019-06-07T18:02:37.461Z,15.50
2019-06-07T18:05:12.709Z,15.50
2019-06-07T18:07:45.434Z,15.50
2019-06-07T18:10:26.701Z,15.60
2019-06-07T18:12:59.657Z,15.70
2019-06-07T18:15:40.450Z,15.80
2019-06-07T18:18:12.215Z,15.90
2019-06-07T18:20:45.043Z,16.00
2019-06-07T18:23:14.918Z,16.00
2019-06-07T18:25:46.434Z,15.90
2019-06-07T18:28:17.826Z,15.80
2019-06-07T18:30:48.780Z,15.80
2019-06-07T18:33:18.999Z,15.70
2019-06-07T18:35:51.295Z,15.70
2019-06-07T18:38:21.799Z,15.70
2019-06-07T18:40:53.274Z,15.60
2019-06-07T18:43:23.485Z,15.60
2019-06-07T18:45:55.951Z,15.60
2019-06-07T18:48:26.522Z,15.60
2019-06-07T18:50:59.047Z,15.60
2019-06-07T18:53:29.916Z,15.50
2019-06-07T18:56:02.981Z,15.40
2019-06-07T18:58:34.878Z,15.40
2019-06-07T19:01:05.818Z,15.40
2019-06-07T19:03:36.157Z,15.40
2019-06-07T19:06:07.319Z,15.30
2019-06-07T19:08:37.834Z,15.30
2019-06-07T19:11:08.369Z,15.20
2019-06-07T19:13:39.330Z,15.30
2019-06-07T19:16:10.658Z,15.30
2019-06-07T19:18:41.191Z,15.30
2019-06-07T19:21:11.689Z,15.40
2019-06-07T19:23:41.994Z,15.40
2019-06-07T19:26:12.994Z,15.50
2019-06-07T19:28:43.874Z,15.50
2019-06-07T19:31:14.014Z,15.50
2019-06-07T19:33:49.192Z,15.50
2019-06-07T19:36:16.927Z,15.40
2019-06-07T19:38:47.718Z,15.30
2019-06-07T19:41:19.956Z,15.10
2019-06-07T19:43:52.038Z,15.00
2019-06-07T19:46:23.157Z,14.90
2019-06-07T19:48:54.533Z,14.80
2019-06-07T19:51:25.296Z,14.70
2019-06-07T19:53:57.114Z,14.70
2019-06-07T19:56:28.413Z,14.70
2019-06-07T19:58:59.796Z,14.70
2019-06-07T20:01:30.723Z,14.70
2019-06-07T20:04:02.451Z,14.70
2019-06-07T20:06:32.806Z,14.80
2019-06-07T20:09:04.855Z,14.90
2019-06-07T20:11:35.932Z,14.90
2019-06-07T20:14:06.578Z,15.00
2019-06-07T20:16:37.608Z,15.00
2019-06-07T20:19:09.152Z,15.10
2019-06-07T20:21:40.309Z,15.10
2019-06-07T20:24:26.266Z,15.20
2019-06-07T20:26:43.646Z,15.10
2019-06-07T20:29:25.465Z,15.10
2019-06-07T20:31:46.365Z,15.10
2019-06-07T20:34:17.267Z,15.10
2019-06-07T20:36:48.224Z,15.10
2019-06-07T20:39:18.502Z,15.10
2019-06-07T20:41:49.903Z,15.00
2019-06-07T20:44:20.441Z,15.00
2019-06-07T20:46:51.178Z,14.90
2019-06-07T20:49:21.922Z,14.90
2019-06-07T20:51:52.368Z,15.00
2019-06-07T20:54:23.601Z,15.00
2019-06-07T20:56:54.744Z,15.00
2019-06-07T20:59:25.875Z,15.00
2019-06-07T21:01:56.211Z,15.00
2019-06-07T21:04:27.169Z,15.00
2019-06-07T21:06:57.260Z,15.00
2019-06-07T21:09:28.023Z,15.10
2019-06-07T21:11:59.830Z,15.10
2019-06-07T21:14:30.538Z,15.10
2019-06-07T21:17:02.115Z,15.10
2019-06-07T21:19:33.658Z,15.10
2019-06-07T21:22:04.619Z,15.10
2019-06-07T21:24:36.163Z,15.10
2019-06-07T21:27:07.489Z,15.20
2019-06-07T21:29:39.280Z,15.20
2019-06-07T21:32:09.720Z,15.20
2019-06-07T21:34:40.542Z,15.30
2019-06-07T21:37:12.233Z,15.30
2019-06-07T21:39:43.246Z,15.30
2019-06-07T21:42:14.384Z,15.30
2019-06-07T21:44:45.130Z,15.40
2019-06-07T21:47:16.479Z,15.40
2019-06-07T21:49:47.027Z,15.40
2019-06-07T21:52:17.631Z,15.50
2019-06-07T21:54:48.715Z,15.50
2019-06-07T21:57:19.436Z,15.50
2019-06-07T21:59:49.970Z,15.50
2019-06-07T22:02:20.315Z,15.50
2019-06-07T22:04:50.358Z,15.50
2019-06-07T22:07:21.385Z,15.50
2019-06-07T22:09:52.368Z,15.50
2019-06-07T22:12:22.968Z,15.40
2019-06-07T22:14:53.788Z,15.40
2019-06-07T22:17:25.142Z,15.30
2019-06-07T22:19:55.874Z,15.20
2019-06-07T22:22:26.410Z,15.10
2019-06-07T22:24:57.913Z,15.00
2019-06-07T22:27:28.904Z,14.90
2019-06-07T22:29:59.370Z,14.80
2019-06-07T22:32:30.171Z,14.60
2019-06-07T22:35:00.718Z,14.50
2019-06-07T22:37:31.602Z,14.50
2019-06-07T22:40:02.620Z,14.50
2019-06-07T22:42:33.138Z,14.50
2019-06-07T22:45:04.096Z,14.60
2019-06-07T22:47:35.432Z,14.60
2019-06-07T22:50:06.170Z,14.70
2019-06-07T22:52:36.639Z,14.80
2019-06-07T22:55:10.061Z,14.80
2019-06-07T22:57:58.466Z,14.90
2019-06-07T23:00:31.546Z,14.90
2019-06-07T23:03:01.569Z,14.90
2019-06-07T23:05:31.707Z,15.00
2019-06-07T23:08:03.059Z,15.00
2019-06-07T23:10:33.589Z,15.00
2019-06-07T23:13:04.726Z,15.00
2019-06-07T23:15:35.874Z,15.00
2019-06-07T23:18:06.616Z,15.00
2019-06-07T23:20:37.464Z,14.90
2019-06-07T23:23:07.892Z,15.00
2019-06-07T23:25:38.362Z,15.00
2019-06-07T23:28:08.516Z,15.00
2019-06-07T23:30:39.287Z,15.10
2019-06-07T23:33:10.777Z,15.10
2019-06-07T23:35:42.816Z,15.10
2019-06-07T23:38:13.073Z,15.10
2019-06-07T23:40:43.801Z,15.10
2019-06-07T23:43:15.190Z,15.20
2019-06-07T23:45:45.603Z,15.10
2019-06-07T23:48:17.395Z,15.20
2019-06-07T23:50:48.670Z,15.10
2019-06-07T23:53:19.951Z,15.10
2019-06-07T23:55:52.004Z,15.10
2019-06-07T23:58:23.364Z,15.10
